Time;durP1;ratioP1;P1;durP2;ratioP2;P2;SDS_P1;SDS_P2;PMS_P1;PMS_P2;Temp;Humidity;BMP_temperature;BMP_pressure;BME280_temperature;BME280_humidity;BME280_pressure;Samples;Min_cycle;Max_cycle;Signal;HPM_P1;HPM_P2
2024/04/07 00:00:19;;;;;;;;;;;;;;;;;;2105271;28;20135;-80
2024/04/07 00:01:20;;;;;;;2.35;1.25;;;;;;;;;;2103211;28;19939;-81
2024/04/07 00:02:21;;;;;;;;;;;;;;;;;;2105795;28;20497;-81
2024/04/07 00:03:22;;;;;;;3.30;1.10;;;;;;;;;;2104124;28;19952;-81
2024/04/07 00:04:23;;;;;;;4.35;1.55;;;;;;;;;;2103631;28;20104;-81
2024/04/07 00:05:23;;;;;;;;;;;;;;;;;;2104115;28;20517;-80
2024/04/07 00:06:25;;;;;;;1.77;1.03;;;;;;;;;;2102408;28;19961;-81
2024/04/07 00:07:26;;;;;;;2.03;0.95;;;;;;;;;;2103553;28;20926;-81
2024/04/07 00:08:28;;;;;;;1.77;0.90;;;;;;;;;;2104775;28;20147;-81
2024/04/07 00:09:29;;;;;;;3.03;1.25;;;;;;;;;;2102096;28;20071;-83
2024/04/07 00:10:30;;;;;;;1.75;0.93;;;;;;;;;;2094997;28;20040;-83
2024/04/07 00:11:32;;;;;;;;;;;;;;;;;;2102244;28;20131;-82
2024/04/07 00:12:33;;;;;;;2.72;1.17;;;;;;;;;;2101060;28;19924;-81
2024/04/07 00:13:35;;;;;;;;;;;;;;;;;;2104583;28;20121;-81
2024/04/07 00:14:36;;;;;;;;;;;;;;;;;;2099669;28;19928;-82
2024/04/07 00:15:37;;;;;;;2.90;1.25;;;;;;;;;;2103603;28;19931;-80
2024/04/07 00:16:37;;;;;;;4.68;1.20;;;;;;;;;;2103469;28;20086;-81
2024/04/07 00:17:39;;;;;;;;;;;;;;;;;;2103479;28;20076;-81
2024/04/07 00:18:40;;;;;;;;;;;;;;;;;;2104053;28;19920;-81
2024/04/07 00:19:42;;;;;;;4.10;1.10;;;;;;;;;;2103505;28;19960;-81
2024/04/07 00:20:44;;;;;;;2.40;1.02;;;;;;;;;;2103237;28;20997;-81
2024/04/07 00:21:45;;;;;;;3.17;1.30;;;;;;;;;;2104297;28;20087;-82
2024/04/07 00:22:47;;;;;;;2.05;1.20;;;;;;;;;;2103595;28;20105;-81
2024/04/07 00:23:49;;;;;;;2.92;1.40;;;;;;;;;;2101460;28;20174;-81
2024/04/07 00:24:50;;;;;;;2.03;1.13;;;;;;;;;;2104297;28;20051;-82
2024/04/07 00:25:50;;;;;;;;;;;;;;;;;;2104590;28;20615;-82
2024/04/07 00:26:53;;;;;;;5.60;1.20;;;;;;;;;;2102993;28;19924;-81
2024/04/07 00:27:53;;;;;;;7.03;1.52;;;;;;;;;;2104734;28;20044;-81
2024/04/07 00:28:55;;;;;;;;;;;;;;;;;;2104897;28;20453;-81
2024/04/07 00:29:56;;;;;;;3.90;1.10;;;;;;;;;;2103746;28;19927;-81
2024/04/07 00:30:56;;;;;;;;;;;;;;;;;;2104791;28;20462;-80
2024/04/07 00:31:58;;;;;;;1.97;1.00;;;;;;;;;;2102995;28;20019;-81
2024/04/07 00:33:00;;;;;;;3.25;1.15;;;;;;;;;;2105010;28;20048;-81
2024/04/07 00:34:01;;;;;;;2.20;1.20;;;;;;;;;;2104327;28;20055;-81
2024/04/07 00:35:02;;;;;;;;;;;;;;;;;;2106680;28;20108;-81
2024/04/07 00:36:05;;;;;;;3.35;1.23;;;;;;;;;;2107674;28;20022;-82
2024/04/07 00:37:08;;;;;;;5.43;1.45;;;;;;;;;;2105057;28;20052;-80
2024/04/07 00:38:09;;;;;;;2.67;1.25;;;;;;;;;;2107737;28;20088;-81
2024/04/07 00:39:09;;;;;;;;;;;;;;;;;;2102289;28;20063;-82
2024/04/07 00:40:11;;;;;;;2.73;1.27;;;;;;;;;;2101387;28;19919;-81
2024/04/07 00:41:12;;;;;;;4.15;1.10;;;;;;;;;;2102861;28;20143;-81
2024/04/07 00:42:15;;;;;;;3.60;1.13;;;;;;;;;;2104411;28;20063;-81
2024/04/07 00:43:16;;;;;;;2.13;1.10;;;;;;;;;;2098422;28;20052;-83
2024/04/07 00:44:16;;;;;;;;;;;;;;;;;;2094685;28;20067;-82
2024/04/07 00:45:17;;;;;;;2.63;1.10;;;;;;;;;;2104036;28;19947;-81
2024/04/07 00:46:19;;;;;;;;;;;;;;;;;;2103982;28;20865;-80
2024/04/07 00:47:19;;;;;;;;;;;;;;;;;;2102688;28;20001;-81
2024/04/07 00:48:20;;;;;;;2.87;1.10;;;;;;;;;;2103961;28;19927;-80
2024/04/07 00:49:22;;;;;;;1.83;1.10;;;;;;;;;;2103757;28;20059;-82
2024/04/07 00:50:23;;;;;;;3.45;1.00;;;;;;;;;;2103248;28;20056;-81
2024/04/07 00:51:23;;;;;;;;;;;;;;;;;;2098813;28;20052;-81
2024/04/07 00:52:24;;;;;;;2.27;1.07;;;;;;;;;;2103060;28;19920;-81
2024/04/07 00:53:26;;;;;;;;;;;;;;;;;;2103549;28;20055;-82
2024/04/07 00:54:26;;;;;;;;;;;;;;;;;;2102145;28;20285;-81
2024/04/07 00:55:27;;;;;;;1.70;0.85;;;;;;;;;;2103634;28;19934;-81
2024/04/07 00:56:28;;;;;;;4.43;1.30;;;;;;;;;;2103132;28;20044;-82
2024/04/07 00:57:31;;;;;;;;;;;;;;;;;;2093624;28;20084;-81
2024/04/07 00:58:32;;;;;;;3.10;1.20;;;;;;;;;;2100334;28;20618;-81
2024/04/07 00:59:33;;;;;;;;;;;;;;;;;;2103100;28;20079;-81
2024/04/07 01:00:34;;;;;;;3.37;1.30;;;;;;;;;;2100951;28;19920;-81
2024/04/07 01:01:35;;;;;;;;;;;;;;;;;;2102526;28;20457;-81
2024/04/07 01:02:36;;;;;;;4.45;1.10;;;;;;;;;;2102476;28;19985;-82
2024/04/07 01:03:36;;;;;;;;;;;;;;;;;;2104271;28;20122;-81
2024/04/07 01:04:37;;;;;;;4.60;1.60;;;;;;;;;;2101892;28;19922;-81
2024/04/07 01:05:39;;;;;;;;;;;;;;;;;;2103796;28;20043;-81
2024/04/07 01:06:40;;;;;;;4.20;1.30;;;;;;;;;;2100953;28;20294;-82
2024/04/07 01:07:40;;;;;;;;;;;;;;;;;;2092328;28;20117;-81
2024/04/07 01:08:41;;;;;;;3.07;1.40;;;;;;;;;;2102464;28;19999;-82
2024/04/07 01:09:43;;;;;;;;;;;;;;;;;;2100900;28;20184;-81
2024/04/07 01:10:49;;;;;;;3.50;1.40;;;;;;;;;;2101052;28;20280;-82
2024/04/07 01:11:50;;;;;;;3.78;1.70;;;;;;;;;;2093490;28;20138;-81
2024/04/07 01:12:52;;;;;;;;;;;;;;;;;;2099428;28;20043;-80
2024/04/07 01:13:54;;;;;;;4.72;1.60;;;;;;;;;;2102113;28;19931;-81
2024/04/07 01:14:55;;;;;;;2.75;1.73;;;;;;;;;;2102890;28;20036;-80
2024/04/07 01:15:55;;;;;;;;;;;;;;;;;;2094194;28;21267;-79
2024/04/07 01:16:56;;;;;;;2.50;1.33;;;;;;;;;;2099130;28;19927;-80
2024/04/07 01:17:57;;;;;;;;;;;;;;;;;;2102168;28;20052;-80
2024/04/07 01:18:58;;;;;;;2.80;1.60;;;;;;;;;;2102328;28;19926;-79
2024/04/07 01:19:59;;;;;;;4.65;1.80;;;;;;;;;;2100799;28;20467;-80
2024/04/07 01:21:00;;;;;;;;;;;;;;;;;;2103638;28;20078;-80
2024/04/07 01:22:01;;;;;;;4.53;1.53;;;;;;;;;;2100623;28;19974;-82
2024/04/07 01:23:03;;;;;;;4.25;1.65;;;;;;;;;;2092868;28;20050;-81
2024/04/07 01:24:06;;;;;;;4.18;1.45;;;;;;;;;;2102166;28;20052;-80
2024/04/07 01:25:06;;;;;;;2.40;1.50;;;;;;;;;;2102014;28;20139;-81
2024/04/07 01:26:07;;;;;;;;;;;;;;;;;;2104363;28;20126;-81
2024/04/07 01:27:09;;;;;;;4.50;1.60;;;;;;;;;;2103730;28;19995;-79
2024/04/07 01:28:10;;;;;;;5.88;1.80;;;;;;;;;;2091242;28;20055;-80
2024/04/07 01:29:10;;;;;;;;;;;;;;;;;;2099691;28;20056;-80
2024/04/07 01:30:11;;;;;;;3.07;1.37;;;;;;;;;;2103098;28;19920;-80
2024/04/07 01:31:13;;;;;;;3.22;2.00;;;;;;;;;;2100603;28;20079;-80
2024/04/07 01:32:14;;;;;;;4.47;1.80;;;;;;;;;;2103578;28;20052;-81
2024/04/07 01:33:14;;;;;;;;;;;;;;;;;;2103010;28;20515;-81
2024/04/07 01:34:15;;;;;;;6.70;1.90;;;;;;;;;;2102985;28;20246;-80
2024/04/07 01:35:17;;;;;;;3.30;1.85;;;;;;;;;;2094217;28;20204;-81
2024/04/07 01:36:18;;;;;;;5.75;1.90;;;;;;;;;;2097556;28;20135;-81
2024/04/07 01:37:19;;;;;;;;;;;;;;;;;;2101950;28;20048;-81
2024/04/07 01:38:20;;;;;;;3.90;1.73;;;;;;;;;;2104264;28;19928;-80
2024/04/07 01:39:22;;;;;;;;;;;;;;;;;;2102614;28;20063;-81
2024/04/07 01:40:23;;;;;;;5.57;2.28;;;;;;;;;;2100352;28;19924;-81
2024/04/07 01:41:24;;;;;;;;;;;;;;;;;;2093911;28;20337;-81
2024/04/07 01:42:24;;;;;;;5.07;1.60;;;;;;;;;;2098844;28;19924;-81
2024/04/07 01:43:26;;;;;;;4.82;2.25;;;;;;;;;;2104679;28;20677;-81
2024/04/07 01:44:27;;;;;;;3.55;1.63;;;;;;;;;;2104513;28;20079;-81
2024/04/07 01:45:27;;;;;;;;;;;;;;;;;;2105047;28;20405;-82
2024/04/07 01:46:28;;;;;;;5.77;2.17;;;;;;;;;;2104760;28;20300;-82
2024/04/07 01:47:30;;;;;;;;;;;;;;;;;;2102526;28;20048;-81
2024/04/07 01:48:31;;;;;;;5.95;1.92;;;;;;;;;;2093605;28;19930;-81
2024/04/07 01:49:32;;;;;;;8.75;2.88;;;;;;;;;;2102541;28;20241;-80
2024/04/07 01:50:32;;;;;;;;;;;;;;;;;;2103899;28;20138;-81
2024/04/07 01:51:34;;;;;;;4.60;1.90;;;;;;;;;;2105338;28;19942;-81
2024/04/07 01:52:35;;;;;;;8.32;1.70;;;;;;;;;;2104127;28;20051;-80
2024/04/07 01:53:35;;;;;;;;;;;;;;;;;;2104421;28;20934;-82
2024/04/07 01:54:38;;;;;;;5.13;2.33;;;;;;;;;;2105170;28;20017;-81
2024/04/07 01:55:39;;;;;;;7.47;2.38;;;;;;;;;;2104814;28;20044;-81
2024/04/07 01:56:40;;;;;;;4.63;1.75;;;;;;;;;;2105661;28;20131;-80
2024/04/07 01:57:41;;;;;;;;;;;;;;;;;;2105940;28;20055;-80
2024/04/07 01:58:41;;;;;;;7.40;2.00;;;;;;;;;;2104888;28;20433;-81
2024/04/07 01:59:43;;;;;;;;;;;;;;;;;;2104308;28;20146;-80
2024/04/07 02:00:44;;;;;;;5.72;2.45;;;;;;;;;;2094000;28;20010;-83
2024/04/07 02:01:45;;;;;;;;;;;;;;;;;;2100422;28;20157;-84
2024/04/07 02:02:45;;;;;;;6.13;2.37;;;;;;;;;;2102909;28;20293;-82
2024/04/07 02:03:47;;;;;;;;;;;;;;;;;;2105734;28;20048;-80
2024/04/07 02:04:48;;;;;;;3.72;1.70;;;;;;;;;;2103339;28;20668;-81
2024/04/07 02:05:49;;;;;;;5.85;1.90;;;;;;;;;;2102668;28;20139;-81
2024/04/07 02:06:50;;;;;;;;;;;;;;;;;;2106218;28;20509;-81
2024/04/07 02:07:51;;;;;;;5.75;2.33;;;;;;;;;;2101707;28;19924;-80
2024/04/07 02:08:52;;;;;;;6.15;2.20;;;;;;;;;;2094716;28;20058;-81
2024/04/07 02:09:55;;;;;;;;;;;;;;;;;;2101678;28;20056;-82
2024/04/07 02:10:56;;;;;;;5.80;2.42;;;;;;;;;;2099090;28;20200;-81
2024/04/07 02:11:57;;;;;;;5.75;2.17;;;;;;;;;;2101864;28;20051;-81
2024/04/07 02:12:57;;;;;;;;;;;;;;;;;;2101918;28;20056;-82
2024/04/07 02:13:59;;;;;;;7.63;2.27;;;;;;;;;;2103943;28;19924;-80
2024/04/07 02:15:00;;;;;;;4.25;2.13;;;;;;;;;;2097253;28;20083;-81
2024/04/07 02:16:01;;;;;;;;;;;;;;;;;;2102073;28;20044;-81
2024/04/07 02:17:02;;;;;;;7.87;2.23;;;;;;;;;;2105496;28;19938;-81
2024/04/07 02:18:05;;;;;;;6.80;2.30;;;;;;;;;;2097681;28;20057;-81
2024/04/07 02:19:06;;;;;;;6.10;1.88;;;;;;;;;;2099792;28;20068;-80
2024/04/07 02:20:08;;;;;;;;;;;;;;;;;;2104733;28;20448;-82
2024/04/07 02:21:09;;;;;;;8.15;2.65;;;;;;;;;;2100450;28;19928;-81
2024/04/07 02:22:10;;;;;;;;;;;;;;;;;;2102860;28;20048;-83
2024/04/07 02:23:11;;;;;;;7.05;2.15;;;;;;;;;;2102860;28;20352;-84
2024/04/07 02:24:12;;;;;;;;;;;;;;;;;;2102799;28;20074;-84
2024/04/07 02:25:14;;;;;;;8.20;2.33;;;;;;;;;;2095741;28;20076;-83
2024/04/07 02:26:16;;;;;;;7.22;2.53;;;;;;;;;;2102272;28;20071;-84
2024/04/07 02:27:17;;;;;;;6.88;2.30;;;;;;;;;;2104576;28;20048;-82
2024/04/07 02:28:18;;;;;;;5.13;2.00;;;;;;;;;;2104009;28;20059;-82
2024/04/07 02:29:19;;;;;;;;;;;;;;;;;;2104024;28;20727;-82
2024/04/07 02:30:20;;;;;;;4.87;1.70;;;;;;;;;;2105435;28;20272;-84
2024/04/07 02:31:21;;;;;;;3.70;2.00;;;;;;;;;;2103358;28;20052;-82
2024/04/07 02:32:22;;;;;;;;;;;;;;;;;;2106033;28;20053;-83
2024/04/07 02:33:22;;;;;;;7.03;2.47;;;;;;;;;;2103011;28;20488;-83
2024/04/07 02:34:24;;;;;;;;;;;;;;;;;;2104736;28;20060;-83
2024/04/07 02:35:25;;;;;;;8.07;2.00;;;;;;;;;;2103123;28;19924;-83
2024/04/07 02:36:26;;;;;;;;;;;;;;;;;;2103329;28;20063;-83
2024/04/07 02:37:27;;;;;;;5.35;1.80;;;;;;;;;;2104018;28;19924;-83
2024/04/07 02:38:28;;;;;;;;;;;;;;;;;;2104209;28;20074;-83
2024/04/07 02:39:29;;;;;;;6.38;1.90;;;;;;;;;;2102742;28;19924;-83
2024/04/07 02:40:31;;;;;;;;;;;;;;;;;;2104244;28;20058;-84
2024/04/07 02:41:32;;;;;;;3.55;1.70;;;;;;;;;;2104134;28;19924;-84
2024/04/07 02:42:34;;;;;;;;;;;;;;;;;;2103616;28;20486;-80
2024/04/07 02:43:34;;;;;;;5.50;1.70;;;;;;;;;;2103672;28;19935;-81
2024/04/07 02:48:34;;;;;;;5.90;1.63;;;;;;;;;;2103371;28;20048;-82
2024/04/07 02:49:34;;;;;;;8.30;1.90;;;;;;;;;;2104071;28;20055;-82
2024/04/07 02:50:35;;;;;;;;;;;;;;;;;;2105603;28;20155;-82
2024/04/07 02:51:37;;;;;;;3.07;1.70;;;;;;;;;;2106122;28;19920;-82
2024/04/07 02:52:38;;;;;;;3.15;1.45;;;;;;;;;;2102239;28;20048;-83
2024/04/07 02:53:39;;;;;;;;;;;;;;;;;;2097543;28;20070;-82
2024/04/07 02:54:40;;;;;;;4.22;1.65;;;;;;;;;;2098867;28;19941;-82
2024/04/07 02:55:42;;;;;;;3.58;1.30;;;;;;;;;;2103112;28;20044;-81
2024/04/07 02:56:43;;;;;;;5.32;1.40;;;;;;;;;;2103787;28;20044;-82
2024/04/07 02:57:44;;;;;;;;;;;;;;;;;;2105531;28;20093;-82
2024/04/07 02:58:46;;;;;;;4.07;1.60;;;;;;;;;;2101133;28;19998;-84
2024/04/07 02:59:47;;;;;;;2.80;1.67;;;;;;;;;;2099165;28;20052;-82
2024/04/07 03:00:48;;;;;;;4.57;1.67;;;;;;;;;;2102670;28;20049;-81
2024/04/07 03:01:49;;;;;;;;;;;;;;;;;;2093382;28;20043;-82
2024/04/07 03:02:50;;;;;;;5.03;1.35;;;;;;;;;;2099224;28;20582;-82
2024/04/07 03:03:50;;;;;;;;;;;;;;;;;;2105069;28;20052;-82
2024/04/07 03:04:51;;;;;;;6.10;1.40;;;;;;;;;;2103132;28;19935;-82
2024/04/07 03:05:53;;;;;;;;;;;;;;;;;;2104946;28;20136;-82
2024/04/07 03:06:56;;;;;;;2.72;1.25;;;;;;;;;;2104313;28;19920;-82
2024/04/07 03:07:57;;;;;;;4.60;1.27;;;;;;;;;;2102197;28;20047;-82
2024/04/07 03:08:58;;;;;;;;;;;;;;;;;;2106406;28;20048;-81
2024/04/07 03:10:00;;;;;;;3.13;1.40;;;;;;;;;;2102329;28;19919;-82
2024/04/07 03:11:03;;;;;;;2.05;1.25;;;;;;;;;;2103809;28;20059;-82
2024/04/07 03:12:04;;;;;;;3.45;1.40;;;;;;;;;;2105489;28;20040;-81
2024/04/07 03:13:06;;;;;;;3.05;1.20;;;;;;;;;;2103687;28;20075;-80
2024/04/07 03:14:07;;;;;;;3.05;1.30;;;;;;;;;;2102310;28;20116;-82
2024/04/07 03:15:08;;;;;;;;;;;;;;;;;;2105223;28;20052;-81
2024/04/07 03:16:10;;;;;;;3.47;1.20;;;;;;;;;;2099898;28;19932;-82
2024/04/07 03:17:12;;;;;;;2.80;1.35;;;;;;;;;;2104770;28;20421;-83
2024/04/07 03:18:13;;;;;;;3.15;1.50;;;;;;;;;;2102218;28;20452;-82
2024/04/07 03:19:14;;;;;;;3.92;1.75;;;;;;;;;;2104782;28;20088;-83
2024/04/07 03:20:14;;;;;;;;;;;;;;;;;;2102293;28;21519;-82
2024/04/07 03:21:16;;;;;;;2.40;1.10;;;;;;;;;;2102768;28;19920;-81
2024/04/07 03:22:17;;;;;;;6.43;1.58;;;;;;;;;;2104630;28;20134;-81
2024/04/07 03:23:18;;;;;;;;;;;;;;;;;;2102271;28;20137;-81
2024/04/07 03:24:18;;;;;;;3.87;1.37;;;;;;;;;;2103560;28;20025;-81
2024/04/07 03:25:20;;;;;;;;;;;;;;;;;;2105748;28;20170;-82
2024/04/07 03:26:22;;;;;;;;;;;;;;;;;;2103550;28;19920;-83
2024/04/07 03:27:23;;;;;;;4.30;1.70;;;;;;;;;;2104065;28;19942;-82
2024/04/07 03:28:24;;;;;;;;;;;;;;;;;;2104083;28;20059;-80
2024/04/07 03:29:25;;;;;;;;;;;;;;;;;;2104631;28;19924;-80
2024/04/07 03:30:26;;;;;;;2.40;1.17;;;;;;;;;;2103406;28;19963;-80
2024/04/07 03:31:27;;;;;;;3.88;1.20;;;;;;;;;;2104353;28;20615;-81
2024/04/07 03:32:29;;;;;;;7.25;1.52;;;;;;;;;;2104391;28;20048;-82
2024/04/07 03:33:31;;;;;;;3.67;0.90;;;;;;;;;;2104053;28;20044;-80
2024/04/07 03:34:31;;;;;;;2.08;1.35;;;;;;;;;;2104803;28;20048;-81
2024/04/07 03:35:32;;;;;;;;;;;;;;;;;;2104961;28;20059;-80
2024/04/07 03:36:34;;;;;;;4.30;1.27;;;;;;;;;;2104871;28;19971;-80
2024/04/07 03:37:36;;;;;;;3.22;1.17;;;;;;;;;;2104331;28;20109;-79
2024/04/07 03:38:36;;;;;;;3.22;1.10;;;;;;;;;;2104651;28;20097;-80
2024/04/07 03:39:37;;;;;;;;;;;;;;;;;;2105592;28;20707;-79
2024/04/07 03:40:39;;;;;;;3.13;1.10;;;;;;;;;;2102388;28;19920;-80
2024/04/07 03:41:41;;;;;;;3.33;1.30;;;;;;;;;;2104922;28;20112;-80
2024/04/07 03:42:43;;;;;;;2.63;0.88;;;;;;;;;;2100741;28;20056;-80
2024/04/07 03:43:44;;;;;;;2.15;1.00;;;;;;;;;;2102489;28;20060;-81
2024/04/07 03:44:44;;;;;;;;;;;;;;;;;;2104223;28;20048;-80
2024/04/07 03:45:46;;;;;;;2.50;1.30;;;;;;;;;;2104791;28;19927;-80
2024/04/07 03:46:47;;;;;;;1.80;1.00;;;;;;;;;;2102682;28;20045;-81
2024/04/07 03:47:48;;;;;;;;;;;;;;;;;;2104546;28;20101;-80
2024/04/07 03:48:50;;;;;;;3.78;1.33;;;;;;;;;;2104005;28;19983;-80
2024/04/07 03:49:51;;;;;;;2.72;1.20;;;;;;;;;;2103132;28;20048;-80
2024/04/07 03:50:51;;;;;;;;;;;;;;;;;;2105154;28;20040;-81
2024/04/07 03:51:53;;;;;;;2.80;1.20;;;;;;;;;;2104851;28;19916;-81
2024/04/07 03:52:54;;;;;;;3.75;1.23;;;;;;;;;;2104183;28;20067;-81
2024/04/07 03:53:55;;;;;;;;;;;;;;;;;;2105406;28;20584;-80
2024/04/07 03:54:55;;;;;;;6.38;1.33;;;;;;;;;;2104881;28;20511;-81
2024/04/07 03:55:57;;;;;;;;;;;;;;;;;;2104348;28;20277;-80
2024/04/07 03:56:59;;;;;;;;;;;;;;;;;;2103835;28;19945;-80
2024/04/07 03:58:00;;;;;;;2.13;0.98;;;;;;;;;;2104427;28;19967;-79
2024/04/07 03:59:02;;;;;;;;;;;;;;;;;;2104414;28;20490;-81
2024/04/07 04:00:04;;;;;;;3.25;1.08;;;;;;;;;;2102742;28;19963;-80
2024/04/07 04:01:05;;;;;;;2.80;1.00;;;;;;;;;;2104903;28;20412;-81
2024/04/07 04:02:05;;;;;;;;;;;;;;;;;;2104827;28;20040;-79
2024/04/07 04:03:07;;;;;;;2.23;1.60;;;;;;;;;;2104202;28;19923;-79
2024/04/07 04:04:08;;;;;;;2.28;1.10;;;;;;;;;;2103360;28;20123;-80
2024/04/07 04:05:08;;;;;;;;;;;;;;;;;;2104970;28;20478;-80
2024/04/07 04:06:09;;;;;;;2.63;1.53;;;;;;;;;;2103672;28;19931;-80
2024/04/07 04:07:10;;;;;;;;;;;;;;;;;;2103729;28;20458;-82
2024/04/07 04:08:11;;;;;;;1.77;1.13;;;;;;;;;;2102838;28;20010;-81
2024/04/07 04:09:12;;;;;;;;;;;;;;;;;;2105577;28;20044;-80
2024/04/07 04:10:12;;;;;;;1.77;0.97;;;;;;;;;;2103613;28;20369;-80
2024/04/07 04:11:14;;;;;;;;;;;;;;;;;;2101401;28;20130;-81
2024/04/07 04:12:16;;;;;;;;;;;;;;;;;;2102753;28;19920;-80
2024/04/07 04:13:17;;;;;;;2.85;0.90;;;;;;;;;;2093790;28;19931;-80
2024/04/07 04:14:18;;;;;;;;;;;;;;;;;;2105458;28;20047;-80
2024/04/07 04:15:19;;;;;;;3.55;1.30;;;;;;;;;;2102539;28;20696;-80
2024/04/07 04:16:20;;;;;;;;;;;;;;;;;;2103601;28;20139;-81
2024/04/07 04:17:21;;;;;;;5.73;1.67;;;;;;;;;;2103871;28;20056;-80
2024/04/07 04:18:22;;;;;;;;;;;;;;;;;;2103524;28;20097;-80
2024/04/07 04:19:23;;;;;;;4.50;2.10;;;;;;;;;;2102973;28;19920;-81
2024/04/07 04:20:23;;;;;;;;;;;;;;;;;;2105225;28;20058;-81
2024/04/07 04:21:24;;;;;;;1.50;0.77;;;;;;;;;;2101487;28;19927;-81
2024/04/07 04:22:26;;;;;;;;;;;;;;;;;;2105142;28;20056;-82
2024/04/07 04:23:27;;;;;;;3.38;1.10;;;;;;;;;;2103009;28;19949;-80
2024/04/07 04:24:28;;;;;;;;;;;;;;;;;;2103527;28;20691;-79
2024/04/07 04:25:28;;;;;;;2.33;1.23;;;;;;;;;;2103763;28;20410;-80
2024/04/07 04:26:30;;;;;;;;;;;;;;;;;;2103595;28;20101;-80
2024/04/07 04:27:32;;;;;;;2.42;1.10;;;;;;;;;;2102803;28;19924;-79
2024/04/07 04:28:33;;;;;;;2.25;1.20;;;;;;;;;;2102212;28;20052;-80
2024/04/07 04:29:33;;;;;;;;;;;;;;;;;;2105116;28;20052;-80
2024/04/07 04:30:35;;;;;;;2.27;1.00;;;;;;;;;;2103687;28;19920;-81
2024/04/07 04:31:36;;;;;;;2.78;1.00;;;;;;;;;;2104457;28;20044;-81
2024/04/07 04:32:36;;;;;;;;;;;;;;;;;;2105026;28;20897;-81
2024/04/07 04:33:37;;;;;;;1.80;1.03;;;;;;;;;;2100494;28;19924;-81
2024/04/07 04:34:38;;;;;;;;;;;;;;;;;;2103939;28;20068;-80
2024/04/07 04:35:39;;;;;;;2.45;1.20;;;;;;;;;;2102232;28;19920;-80
2024/04/07 04:36:40;;;;;;;;;;;;;;;;;;2102503;28;20770;-80
2024/04/07 04:37:40;;;;;;;2.57;1.27;;;;;;;;;;2102708;28;19932;-81
2024/04/07 04:38:42;;;;;;;;;;;;;;;;;;2103709;28;20075;-80
2024/04/07 04:39:43;;;;;;;4.05;1.38;;;;;;;;;;2103078;28;19920;-83
2024/04/07 04:40:51;;;;;;;;;;;;;;;;;;2102166;28;20390;-82
2024/04/07 04:41:51;;;;;;;2.83;1.40;;;;;;;;;;2102739;28;20021;-84
2024/04/07 04:42:54;;;;;;;;;;;;;;;;;;2103959;28;20114;-81
2024/04/07 04:43:55;;;;;;;4.93;1.50;;;;;;;;;;2102320;28;20396;-80
2024/04/07 04:44:57;;;;;;;3.35;1.73;;;;;;;;;;2103103;28;20079;-81
2024/04/07 04:46:03;;;;;;;5.50;2.00;;;;;;;;;;2102969;28;20048;-81
2024/04/07 04:47:04;;;;;;;6.70;1.85;;;;;;;;;;2101933;28;20048;-80
2024/04/07 04:48:06;;;;;;;2.83;1.45;;;;;;;;;;2103572;28;20058;-80
2024/04/07 04:49:07;;;;;;;3.72;1.85;;;;;;;;;;2103894;28;20044;-80
2024/04/07 04:50:10;;;;;;;4.20;1.50;;;;;;;;;;2103426;28;20197;-81
2024/04/07 04:51:11;;;;;;;3.67;1.92;;;;;;;;;;2103415;28;20059;-81
2024/04/07 04:52:13;;;;;;;;;;;;;;;;;;2104016;28;20166;-80
2024/04/07 04:53:13;;;;;;;5.22;1.90;;;;;;;;;;2104195;28;19974;-80
2024/04/07 04:54:14;;;;;;;;;;;;;;;;;;2104853;28;20048;-80
2024/04/07 04:55:15;;;;;;;5.57;1.90;;;;;;;;;;2103384;28;20338;-82
2024/04/07 04:56:17;;;;;;;;;;;;;;;;;;2103455;28;20139;-80
2024/04/07 04:57:17;;;;;;;5.03;2.33;;;;;;;;;;2101841;28;19928;-80
2024/04/07 04:58:19;;;;;;;;;;;;;;;;;;2103541;28;20052;-80
2024/04/07 04:59:20;;;;;;;3.40;1.55;;;;;;;;;;2103784;28;19962;-80
2024/04/07 05:00:22;;;;;;;;;;;;;;;;;;2103628;28;20505;-80
2024/04/07 05:01:23;;;;;;;3.38;1.67;;;;;;;;;;2103685;28;19923;-82
2024/04/07 05:02:23;;;;;;;;;;;;;;;;;;2103972;28;20052;-80
2024/04/07 05:03:27;;;;;;;6.97;2.08;;;;;;;;;;2102663;28;19916;-80
2024/04/07 05:04:28;;;;;;;3.40;1.95;;;;;;;;;;2102340;28;20587;-81
2024/04/07 05:05:29;;;;;;;4.40;2.00;;;;;;;;;;2103382;28;20051;-81
2024/04/07 05:06:29;;;;;;;;;;;;;;;;;;2101213;28;20228;-80
2024/04/07 05:07:31;;;;;;;4.10;1.50;;;;;;;;;;2102362;28;19924;-80
2024/04/07 05:08:31;;;;;;;4.13;1.77;;;;;;;;;;2102276;28;20102;-80
2024/04/07 05:09:32;;;;;;;;;;;;;;;;;;2102360;28;20429;-80
2024/04/07 05:10:34;;;;;;;4.43;1.77;;;;;;;;;;2100609;28;20392;-81
2024/04/07 05:11:35;;;;;;;4.18;1.60;;;;;;;;;;2102045;28;20131;-81
2024/04/07 05:12:36;;;;;;;;;;;;;;;;;;2102154;28;20062;-81
2024/04/07 05:13:39;;;;;;;3.73;2.03;;;;;;;;;;2102610;28;19939;-82
2024/04/07 05:14:40;;;;;;;4.95;1.73;;;;;;;;;;2101528;28;20055;-80
2024/04/07 05:15:41;;;;;;;;;;;;;;;;;;2102835;28;20520;-80
2024/04/07 05:16:42;;;;;;;3.70;2.13;;;;;;;;;;2101371;28;20369;-80
2024/04/07 05:17:46;;;;;;;;;;;;;;;;;;2103528;28;20698;-81
2024/04/07 05:18:47;;;;;;;3.80;1.95;;;;;;;;;;2102465;28;19919;-81
2024/04/07 05:19:49;;;;;;;;;;;;;;;;;;2102526;28;20062;-81
2024/04/07 05:20:49;;;;;;;;;;;;;;;;;;2103040;28;19964;-81
2024/04/07 05:21:51;;;;;;;3.90;1.63;;;;;;;;;;2103201;28;19993;-80
2024/04/07 05:22:52;;;;;;;4.53;1.63;;;;;;;;;;2103113;28;20414;-80
2024/04/07 05:23:52;;;;;;;;;;;;;;;;;;2101869;28;20047;-80
2024/04/07 05:24:53;;;;;;;3.13;1.77;;;;;;;;;;2103798;28;19963;-80
2024/04/07 05:25:55;;;;;;;;;;;;;;;;;;2102012;28;20068;-80
2024/04/07 05:26:57;;;;;;;4.22;1.80;;;;;;;;;;2102190;28;19992;-81
2024/04/07 05:27:58;;;;;;;5.03;1.88;;;;;;;;;;2100826;28;20134;-80
2024/04/07 05:29:00;;;;;;;;;;;;;;;;;;2103871;28;20040;-81
2024/04/07 05:30:02;;;;;;;5.82;1.70;;;;;;;;;;2103935;28;19924;-82
2024/04/07 05:31:04;;;;;;;2.90;1.60;;;;;;;;;;2102574;28;20121;-80
2024/04/07 05:32:05;;;;;;;6.43;1.70;;;;;;;;;;2102895;28;20133;-80
2024/04/07 05:33:07;;;;;;;4.25;1.67;;;;;;;;;;2103993;28;20074;-81
2024/04/07 05:34:08;;;;;;;4.22;1.33;;;;;;;;;;2100824;28;21619;-80
2024/04/07 05:35:08;;;;;;;;;;;;;;;;;;2100884;28;20135;-80
2024/04/07 05:36:10;;;;;;;3.30;1.50;;;;;;;;;;2103014;28;19929;-80
2024/04/07 05:37:11;;;;;;;4.90;1.70;;;;;;;;;;2101294;28;20397;-83
2024/04/07 05:38:12;;;;;;;3.83;1.60;;;;;;;;;;2102250;28;20052;-82
2024/04/07 05:39:14;;;;;;;;;;;;;;;;;;2105346;28;20143;-83
2024/04/07 05:40:16;;;;;;;4.63;1.60;;;;;;;;;;2100208;28;20791;-82
2024/04/07 05:41:16;;;;;;;5.43;1.85;;;;;;;;;;2103902;28;20506;-82
2024/04/07 05:42:17;;;;;;;;;;;;;;;;;;2104626;28;20147;-83
2024/04/07 05:43:19;;;;;;;4.80;1.70;;;;;;;;;;2103214;28;19969;-83
2024/04/07 05:44:21;;;;;;;4.72;1.63;;;;;;;;;;2102954;28;20056;-82
2024/04/07 05:45:22;;;;;;;3.67;1.70;;;;;;;;;;2103398;28;20052;-82
2024/04/07 05:46:23;;;;;;;;;;;;;;;;;;2102882;28;20040;-82
2024/04/07 05:47:25;;;;;;;3.65;1.67;;;;;;;;;;2104147;28;19930;-83
2024/04/07 05:48:26;;;;;;;5.50;2.47;;;;;;;;;;2102490;28;20141;-83
2024/04/07 05:49:26;;;;;;;;;;;;;;;;;;2103572;28;20044;-82
2024/04/07 05:50:28;;;;;;;3.60;1.47;;;;;;;;;;2103251;28;20011;-82
2024/04/07 05:51:29;;;;;;;3.92;2.00;;;;;;;;;;2103721;28;20052;-81
2024/04/07 05:52:29;;;;;;;;;;;;;;;;;;2103501;28;20060;-82
2024/04/07 05:53:31;;;;;;;4.83;1.87;;;;;;;;;;2103210;28;19959;-83
2024/04/07 05:54:31;;;;;;;4.07;2.40;;;;;;;;;;2103240;28;20418;-83
2024/04/07 05:55:33;;;;;;;;;;;;;;;;;;2103846;28;20044;-82
2024/04/07 05:56:34;;;;;;;5.30;2.33;;;;;;;;;;2101576;28;19926;-84
2024/04/07 05:57:35;;;;;;;;;;;;;;;;;;2104046;28;20059;-83
2024/04/07 05:58:36;;;;;;;;;;;;;;;;;;2103162;28;20036;-82
2024/04/07 05:59:38;;;;;;;4.65;2.90;;;;;;;;;;2102192;28;19924;-82
2024/04/07 06:00:40;;;;;;;4.82;2.45;;;;;;;;;;2101691;28;20511;-82
2024/04/07 06:01:42;;;;;;;5.93;2.90;;;;;;;;;;2101782;28;20052;-83
2024/04/07 06:02:42;;;;;;;7.80;3.30;;;;;;;;;;2104055;28;20075;-82
2024/04/07 06:03:43;;;;;;;;;;;;;;;;;;2101248;28;20044;-82
2024/04/07 06:04:44;;;;;;;3.63;2.23;;;;;;;;;;2100902;28;19924;-82
2024/04/07 06:05:45;;;;;;;;;;;;;;;;;;2103597;28;20482;-82
2024/04/07 06:06:47;;;;;;;4.65;2.67;;;;;;;;;;2102856;28;20343;-83
2024/04/07 06:07:49;;;;;;;7.55;3.10;;;;;;;;;;2102089;28;20044;-83
2024/04/07 06:08:51;;;;;;;5.25;3.17;;;;;;;;;;2101546;28;20052;-82
2024/04/07 06:09:52;;;;;;;6.32;3.20;;;;;;;;;;2101495;28;20130;-82
2024/04/07 06:10:52;;;;;;;;;;;;;;;;;;2102816;28;20505;-83
2024/04/07 06:11:53;;;;;;;6.43;3.40;;;;;;;;;;2102823;28;20409;-83
2024/04/07 06:12:55;;;;;;;;;;;;;;;;;;2102971;28;20051;-82
2024/04/07 06:13:55;;;;;;;4.95;3.30;;;;;;;;;;2102609;28;20335;-84
2024/04/07 06:14:57;;;;;;;;;;;;;;;;;;2104969;28;20099;-85
2024/04/07 06:15:59;;;;;;;7.40;3.70;;;;;;;;;;2102717;28;19919;-83
2024/04/07 06:17:00;;;;;;;8.93;3.90;;;;;;;;;;2101085;28;20052;-83
2024/04/07 06:18:01;;;;;;;;;;;;;;;;;;2102140;28;20050;-83
2024/04/07 06:19:02;;;;;;;6.55;3.90;;;;;;;;;;2100575;28;19924;-82
2024/04/07 06:20:04;;;;;;;6.55;4.18;;;;;;;;;;2103041;28;20044;-85
2024/04/07 06:21:07;;;;;;;8.93;4.05;;;;;;;;;;2103475;28;20130;-83
2024/04/07 06:22:08;;;;;;;10.73;3.80;;;;;;;;;;2101525;28;20561;-83
2024/04/07 06:23:09;;;;;;;;;;;;;;;;;;2104695;28;20072;-82
2024/04/07 06:24:10;;;;;;;9.68;4.32;;;;;;;;;;2102731;28;19920;-80
2024/04/07 06:25:10;;;;;;;;;;;;;;;;;;2102421;28;20064;-81
2024/04/07 06:26:11;;;;;;;8.23;3.83;;;;;;;;;;2103502;28;19961;-81
2024/04/07 06:27:13;;;;;;;;;;;;;;;;;;2101409;28;20048;-82